createdAt,value
2022-12-08T00:03:20.775Z,12.50
2022-12-08T00:08:37.300Z,8.80
2022-12-08T00:13:36.487Z,9.60
2022-12-08T00:18:35.458Z,10.40
2022-12-08T00:23:34.545Z,9.30
2022-12-08T00:28:35.052Z,10.50
2022-12-08T00:33:33.731Z,10.10
2022-12-08T00:38:31.963Z,11.40
2022-12-08T00:43:33.756Z,5.40
2022-12-08T00:48:32.806Z,8.80
2022-12-08T00:53:33.560Z,6.30
2022-12-08T00:58:32.573Z,4.80
2022-12-08T01:03:32.105Z,5.20
2022-12-08T01:08:32.083Z,5.50
2022-12-08T01:13:31.407Z,3.20
2022-12-08T01:18:31.837Z,5.30
2022-12-08T01:23:30.709Z,3.60
2022-12-08T01:28:30.032Z,4.60
2022-12-08T01:33:30.089Z,4.00
2022-12-08T01:38:29.015Z,4.60
2022-12-08T01:43:41.681Z,6.90
2022-12-08T01:48:41.146Z,4.70
2022-12-08T01:53:40.340Z,3.50
2022-12-08T01:58:45.134Z,5.20
2022-12-08T02:03:51.638Z,3.70
2022-12-08T02:08:52.134Z,3.10
2022-12-08T02:13:54.287Z,3.60
2022-12-08T02:19:30.689Z,5.90
2022-12-08T02:24:40.621Z,3.40
2022-12-08T02:30:08.086Z,4.30
2022-12-08T02:35:12.491Z,3.30
2022-12-08T02:40:24.107Z,9.20
2022-12-08T02:45:31.772Z,4.10
2022-12-08T02:50:31.345Z,5.50
2022-12-08T02:55:41.816Z,5.40
2022-12-08T03:00:55.499Z,4.30
2022-12-08T03:06:13.703Z,5.60
2022-12-08T03:11:22.685Z,6.20
2022-12-08T03:16:28.259Z,7.30
2022-12-08T03:21:27.814Z,6.20
2022-12-08T03:26:35.840Z,6.50
2022-12-08T03:31:43.983Z,6.10
2022-12-08T03:36:47.333Z,5.80
2022-12-08T03:41:47.026Z,8.30
2022-12-08T03:46:46.085Z,5.70
2022-12-08T03:51:44.862Z,5.70
2022-12-08T03:56:44.360Z,5.80
2022-12-08T04:01:43.525Z,5.50
2022-12-08T04:06:42.841Z,8.10
2022-12-08T04:11:41.880Z,8.50
2022-12-08T04:16:40.541Z,10.00
2022-12-08T04:21:40.123Z,9.10
2022-12-08T04:26:38.836Z,7.00
2022-12-08T04:31:38.248Z,11.70
2022-12-08T04:36:37.139Z,9.00
2022-12-08T04:41:36.593Z,9.90
2022-12-08T04:46:40.204Z,9.20
2022-12-08T04:51:42.644Z,9.10
2022-12-08T04:56:41.897Z,11.00
2022-12-08T05:01:41.145Z,8.10
2022-12-08T05:06:40.502Z,7.80
2022-12-08T05:11:48.300Z,12.40
2022-12-08T05:16:49.656Z,10.10
2022-12-08T05:21:48.463Z,8.40
2022-12-08T05:26:47.795Z,9.60
2022-12-08T05:31:46.880Z,9.90
2022-12-08T05:36:45.315Z,11.60
2022-12-08T05:41:45.093Z,6.80
2022-12-08T05:46:44.415Z,11.00
2022-12-08T05:51:43.442Z,10.50
2022-12-08T05:56:43.365Z,8.80
2022-12-08T06:01:43.049Z,8.40
2022-12-08T06:06:41.823Z,8.40
2022-12-08T06:11:40.687Z,7.10
2022-12-08T06:16:39.673Z,9.80
2022-12-08T06:21:39.059Z,7.60
2022-12-08T06:26:40.245Z,9.50
2022-12-08T06:31:39.719Z,10.80
2022-12-08T06:36:39.114Z,11.90
2022-12-08T06:41:58.856Z,12.20
2022-12-08T06:46:57.727Z,9.90
2022-12-08T06:51:57.186Z,7.20
2022-12-08T06:57:01.681Z,8.90
2022-12-08T07:02:04.651Z,11.10
2022-12-08T07:07:04.163Z,11.50
2022-12-08T07:12:03.092Z,6.30
2022-12-08T07:17:02.494Z,10.40
2022-12-08T07:22:02.111Z,13.30
2022-12-08T07:27:01.278Z,10.30
2022-12-08T07:32:00.484Z,9.70
2022-12-08T07:36:59.872Z,7.60
2022-12-08T07:42:00.109Z,12.90
2022-12-08T07:46:59.412Z,11.60
2022-12-08T07:51:58.603Z,8.40
2022-12-08T07:57:00.370Z,11.30
2022-12-08T08:02:22.303Z,8.40
2022-12-08T08:07:18.379Z,9.70
2022-12-08T08:12:33.394Z,10.90
2022-12-08T08:17:33.580Z,10.90
2022-12-08T08:22:33.360Z,11.20
2022-12-08T08:27:32.549Z,9.50
2022-12-08T08:32:35.973Z,11.20
2022-12-08T08:37:35.859Z,11.00
2022-12-08T08:42:34.573Z,8.90
2022-12-08T08:47:33.689Z,7.40
2022-12-08T08:52:33.040Z,9.00
2022-12-08T08:57:32.795Z,11.80
2022-12-08T09:02:31.926Z,8.00
2022-12-08T09:07:31.770Z,11.90
2022-12-08T09:12:30.777Z,10.50
2022-12-08T09:17:30.165Z,10.60
2022-12-08T09:22:29.561Z,11.10
2022-12-08T09:27:28.547Z,9.00
2022-12-08T09:32:27.785Z,11.50
2022-12-08T09:37:26.651Z,11.00
2022-12-08T09:42:46.245Z,8.60
2022-12-08T09:47:59.285Z,12.60
2022-12-08T09:53:09.157Z,12.40
2022-12-08T09:58:18.723Z,13.20
2022-12-08T10:03:18.889Z,7.30
2022-12-08T10:08:27.559Z,7.50
2022-12-08T10:13:39.634Z,10.80
2022-12-08T10:18:39.453Z,11.70
2022-12-08T10:23:43.842Z,11.30
2022-12-08T10:28:45.387Z,11.00
2022-12-08T10:33:45.369Z,14.30
2022-12-08T10:38:45.346Z,11.80
2022-12-08T10:43:51.155Z,13.20
2022-12-08T10:48:56.208Z,15.40
2022-12-08T10:53:55.966Z,13.70
2022-12-08T10:59:16.085Z,17.80
2022-12-08T11:04:21.726Z,13.60
2022-12-08T11:09:48.739Z,13.50
2022-12-08T11:15:02.574Z,15.40
2022-12-08T11:20:06.733Z,13.90
2022-12-08T11:25:16.300Z,13.40
2022-12-08T11:30:23.779Z,19.80
2022-12-08T11:35:31.257Z,11.20
2022-12-08T11:40:37.100Z,17.10
2022-12-08T11:45:39.043Z,15.10
2022-12-08T11:50:48.312Z,15.50
2022-12-08T11:55:54.716Z,14.50
2022-12-08T12:00:54.149Z,16.60
2022-12-08T12:06:30.825Z,17.80
2022-12-08T12:12:00.314Z,16.90
2022-12-08T12:17:22.448Z,17.60
2022-12-08T12:22:26.884Z,19.00
2022-12-08T12:27:34.185Z,21.10
2022-12-08T12:32:50.708Z,18.80
2022-12-08T12:37:52.068Z,21.30
2022-12-08T12:43:26.556Z,17.00
2022-12-08T12:48:31.907Z,18.00
2022-12-08T12:53:52.880Z,19.70
2022-12-08T12:58:54.934Z,21.10
2022-12-08T13:04:07.805Z,20.00
2022-12-08T13:09:07.975Z,18.00
2022-12-08T13:14:08.133Z,22.30
2022-12-08T13:19:16.021Z,16.40
2022-12-08T13:24:35.498Z,19.00
2022-12-08T13:29:36.330Z,18.20
2022-12-08T13:34:42.805Z,22.60
2022-12-08T13:39:54.679Z,25.50
2022-12-08T13:45:21.764Z,17.60
2022-12-08T14:01:17.722Z,21.50
2022-12-08T14:06:26.486Z,21.80
2022-12-08T14:11:36.920Z,25.00
2022-12-08T14:16:42.871Z,19.70
2022-12-08T14:21:41.761Z,26.30
2022-12-08T14:26:41.010Z,26.20
2022-12-08T14:31:40.043Z,27.00
2022-12-08T14:36:39.793Z,24.70
2022-12-08T14:41:39.571Z,25.30
2022-12-08T14:46:38.712Z,19.90
2022-12-08T14:51:38.400Z,24.50
2022-12-08T14:56:48.918Z,22.70
2022-12-08T15:01:51.138Z,25.30
2022-12-08T15:07:00.339Z,24.20
2022-12-08T15:12:08.995Z,20.70
2022-12-08T15:17:31.367Z,24.30
2022-12-08T15:22:32.202Z,29.50
2022-12-08T15:27:34.962Z,23.30
2022-12-08T15:32:40.433Z,24.00
2022-12-08T15:37:38.917Z,16.20
2022-12-08T15:42:38.145Z,27.90
2022-12-08T15:47:37.279Z,19.90
2022-12-08T15:52:37.070Z,26.40
2022-12-08T15:58:24.871Z,20.80
2022-12-08T16:14:03.135Z,24.70
2022-12-08T16:19:17.144Z,13.90
2022-12-08T16:24:16.365Z,28.80
2022-12-08T16:29:23.107Z,32.20
2022-12-08T16:34:21.617Z,28.50
2022-12-08T16:39:20.901Z,24.50
2022-12-08T16:44:19.812Z,26.70
2022-12-08T16:49:18.535Z,23.20
2022-12-08T16:54:17.513Z,21.20
2022-12-08T16:59:16.891Z,27.40
2022-12-08T17:04:31.434Z,24.50
2022-12-08T17:09:32.229Z,24.90
2022-12-08T17:14:30.596Z,25.90
2022-12-08T17:19:29.213Z,21.50
2022-12-08T17:24:29.318Z,29.10
2022-12-08T17:29:28.608Z,26.30
2022-12-08T17:34:28.017Z,26.90
2022-12-08T17:39:27.455Z,24.90
2022-12-08T17:44:28.334Z,28.00
2022-12-08T17:49:30.975Z,17.30
2022-12-08T17:54:31.811Z,25.00
2022-12-08T17:59:32.052Z,26.40
2022-12-08T18:04:31.035Z,24.80
2022-12-08T18:09:33.950Z,22.90
2022-12-08T18:14:33.374Z,22.20
2022-12-08T18:19:32.884Z,24.10
2022-12-08T18:24:33.142Z,24.30
2022-12-08T18:29:31.582Z,21.30
2022-12-08T18:34:30.162Z,21.20
2022-12-08T18:39:32.517Z,21.30
2022-12-08T18:44:32.363Z,16.70
2022-12-08T18:49:30.744Z,20.80
2022-12-08T18:54:50.084Z,18.50
2022-12-08T18:59:49.385Z,22.30
2022-12-08T19:04:49.023Z,20.00
2022-12-08T19:09:48.220Z,23.60
2022-12-08T19:14:46.940Z,22.00
2022-12-08T19:19:45.679Z,23.20
2022-12-08T19:24:44.962Z,22.90
2022-12-08T19:29:43.575Z,23.70
2022-12-08T19:34:43.659Z,22.50
2022-12-08T19:40:00.681Z,21.90
2022-12-08T19:45:03.716Z,23.20
2022-12-08T19:50:20.811Z,20.00
2022-12-08T19:55:19.763Z,23.40
2022-12-08T20:00:22.146Z,24.60
2022-12-08T20:05:21.328Z,17.80
2022-12-08T20:10:24.430Z,21.40
2022-12-08T20:15:23.860Z,23.70
2022-12-08T20:20:24.012Z,22.30
2022-12-08T20:25:23.614Z,26.40
2022-12-08T20:30:22.746Z,22.80
2022-12-08T20:35:21.680Z,17.80
2022-12-08T20:40:21.444Z,22.70
2022-12-08T20:45:21.470Z,22.90
2022-12-08T20:50:20.763Z,23.60
2022-12-08T20:55:19.997Z,24.60
2022-12-08T21:00:21.523Z,22.60
2022-12-08T21:05:20.658Z,27.00
2022-12-08T21:10:19.704Z,19.60
2022-12-08T21:15:19.177Z,24.10
2022-12-08T21:20:18.676Z,22.20
2022-12-08T21:25:17.718Z,22.40
2022-12-08T21:30:19.115Z,18.70
2022-12-08T21:35:18.376Z,18.60
2022-12-08T21:40:19.791Z,24.00
2022-12-08T21:45:21.993Z,22.90
2022-12-08T21:50:22.796Z,16.40
2022-12-08T21:55:23.947Z,29.30
2022-12-08T22:00:26.716Z,28.30
2022-12-08T22:05:26.730Z,32.00
2022-12-08T22:10:25.790Z,32.60
2022-12-08T22:15:26.159Z,33.00
2022-12-08T22:20:26.688Z,28.40
2022-12-08T22:25:28.028Z,29.60
2022-12-08T22:30:27.605Z,29.90
2022-12-08T22:35:27.057Z,26.50
2022-12-08T22:40:26.639Z,31.20
2022-12-08T22:45:25.979Z,27.90
2022-12-08T22:50:25.625Z,27.60
2022-12-08T22:55:25.141Z,32.20
2022-12-08T23:00:25.557Z,26.30
2022-12-08T23:05:25.320Z,25.40
2022-12-08T23:10:25.162Z,29.90
2022-12-08T23:15:24.568Z,30.30
2022-12-08T23:20:24.891Z,29.70
2022-12-08T23:25:24.306Z,31.40
2022-12-08T23:30:23.137Z,30.90
2022-12-08T23:35:23.126Z,31.30
2022-12-08T23:40:22.490Z,25.60
2022-12-08T23:45:22.239Z,25.80
2022-12-08T23:50:21.558Z,28.10
2022-12-08T23:55:21.332Z,29.10
